createdAt,value
2024-04-19T09:36:03.557Z,10.20
2024-04-19T09:38:30.829Z,10.30
2024-04-19T09:41:00.999Z,10.30
2024-04-19T09:43:31.178Z,10.30
2024-04-19T09:45:59.232Z,10.30
2024-04-19T09:48:31.711Z,10.40
2024-04-19T09:50:59.402Z,10.40
2024-04-19T09:53:34.007Z,10.50
2024-04-19T09:56:41.036Z,10.50
2024-04-19T09:59:11.313Z,10.40
2024-04-19T10:01:38.778Z,10.40
2024-04-19T10:04:10.291Z,10.30
2024-04-19T10:06:41.654Z,10.40
2024-04-19T10:09:15.272Z,10.40
2024-04-19T10:11:45.663Z,10.40
2024-04-19T10:14:13.419Z,10.40
2024-04-19T10:16:40.940Z,10.50
2024-04-19T10:19:08.443Z,10.80
2024-04-19T10:21:37.730Z,10.90
2024-04-19T10:24:31.458Z,11.00
2024-04-19T10:26:58.614Z,11.30
2024-04-19T10:29:27.039Z,11.80
2024-04-19T10:31:55.603Z,12.30
2024-04-19T10:34:24.366Z,12.40
2024-04-19T10:36:54.568Z,12.40
2024-04-19T10:39:21.812Z,12.20
2024-04-19T10:41:50.872Z,12.00
2024-04-19T10:44:17.843Z,11.70
2024-04-19T10:46:45.659Z,11.60
2024-04-19T10:49:12.760Z,11.60
2024-04-19T10:51:40.739Z,11.50
2024-04-19T10:54:08.259Z,11.40
2024-04-19T10:56:38.449Z,11.30
2024-04-19T10:59:05.320Z,11.30
2024-04-19T11:01:32.669Z,11.40
2024-04-19T11:04:01.108Z,11.40
2024-04-19T11:06:30.358Z,11.40
2024-04-19T11:08:57.715Z,11.40
2024-04-19T11:11:26.100Z,11.40
2024-04-19T11:13:53.098Z,11.50
2024-04-19T11:16:20.107Z,11.70
2024-04-19T11:18:47.090Z,12.00
2024-04-19T11:21:14.213Z,12.10
2024-04-19T11:23:41.715Z,12.40
2024-04-19T11:26:08.677Z,12.50
2024-04-19T11:28:35.735Z,12.50
2024-04-19T11:31:10.354Z,12.50
2024-04-19T11:33:37.248Z,12.50
2024-04-19T11:36:15.013Z,12.50
2024-04-19T11:38:42.478Z,12.50
2024-04-19T11:41:14.453Z,12.50
2024-04-19T11:43:41.628Z,12.60
2024-04-19T11:46:08.507Z,12.70
2024-04-19T11:48:35.744Z,12.80
2024-04-19T11:51:02.602Z,12.90
2024-04-19T11:53:29.695Z,12.90
2024-04-19T11:55:56.780Z,12.80
2024-04-19T11:58:23.840Z,12.90
2024-04-19T12:00:51.812Z,13.00
2024-04-19T12:03:19.163Z,13.00
2024-04-19T12:05:46.339Z,13.00
2024-04-19T12:08:13.394Z,13.10
2024-04-19T12:10:40.318Z,13.00
2024-04-19T12:13:50.376Z,13.00
2024-04-19T12:18:26.637Z,13.60
2024-04-19T12:20:54.447Z,13.50
2024-04-19T12:23:22.686Z,13.00
2024-04-19T12:25:53.052Z,12.60
2024-04-19T12:28:25.156Z,12.30
2024-04-19T12:30:52.904Z,12.10
2024-04-19T12:33:22.358Z,12.00
2024-04-19T12:35:49.508Z,12.30
2024-04-19T12:38:20.501Z,12.50
2024-04-19T12:40:47.461Z,12.50
2024-04-19T12:43:15.022Z,12.20
2024-04-19T12:45:44.219Z,12.30
2024-04-19T12:48:11.411Z,12.10
2024-04-19T12:50:38.891Z,12.50
2024-04-19T12:53:06.397Z,12.50
2024-04-19T12:55:34.722Z,12.40
2024-04-19T12:58:02.976Z,12.10
2024-04-19T13:00:30.410Z,12.10
2024-04-19T13:02:57.558Z,12.10
2024-04-19T13:05:24.910Z,12.20
2024-04-19T13:07:52.072Z,12.10
2024-04-19T13:10:23.055Z,12.10
2024-04-19T13:12:50.262Z,11.80
2024-04-19T13:15:17.436Z,11.80
2024-04-19T13:17:44.551Z,11.70
2024-04-19T13:20:11.777Z,11.70
2024-04-19T13:22:38.615Z,11.60
2024-04-19T13:25:06.211Z,11.70
2024-04-19T13:27:33.553Z,11.70
2024-04-19T13:30:01.265Z,11.70
2024-04-19T13:32:28.443Z,11.80
2024-04-19T13:34:55.654Z,11.90
2024-04-19T13:37:24.863Z,12.00
2024-04-19T13:39:52.091Z,12.10
2024-04-19T13:42:19.197Z,12.10
2024-04-19T13:44:46.608Z,12.00
2024-04-19T13:47:14.167Z,11.90
2024-04-19T13:49:41.989Z,11.80
2024-04-19T13:52:09.113Z,11.60
2024-04-19T13:54:36.506Z,11.40
2024-04-19T13:57:05.041Z,11.30
2024-04-19T13:59:32.094Z,11.30
2024-04-19T14:01:59.388Z,11.30
2024-04-19T14:04:26.517Z,11.40
2024-04-19T14:06:53.591Z,11.50
2024-04-19T14:09:20.714Z,11.50
2024-04-19T14:11:47.690Z,11.40
2024-04-19T14:14:14.566Z,11.40
2024-04-19T14:16:41.494Z,11.40
2024-04-19T14:19:08.531Z,11.40
2024-04-19T14:21:35.455Z,11.40
2024-04-19T14:24:02.770Z,11.30
2024-04-19T14:26:29.649Z,11.30
2024-04-19T14:28:56.647Z,11.30
2024-04-19T14:31:23.809Z,11.40
2024-04-19T14:33:50.811Z,11.50
2024-04-19T14:36:17.914Z,11.50
2024-04-19T14:38:44.802Z,11.60
2024-04-19T14:41:11.969Z,11.60
2024-04-19T14:43:40.269Z,11.60
2024-04-19T14:46:08.774Z,11.60
2024-04-19T14:48:38.571Z,11.60
2024-04-19T14:51:05.881Z,11.60
2024-04-19T14:53:32.791Z,11.60
2024-04-19T14:56:00.491Z,11.70
2024-04-19T14:58:27.517Z,11.90
2024-04-19T15:00:54.665Z,12.00
2024-04-19T15:03:24.723Z,12.00
2024-04-19T15:05:55.056Z,12.00
2024-04-19T15:08:22.362Z,12.00
2024-04-19T15:10:49.388Z,12.10
2024-04-19T15:13:16.331Z,12.10
2024-04-19T15:15:44.921Z,12.00
2024-04-19T15:18:12.204Z,11.90
2024-04-19T15:20:39.453Z,11.80
2024-04-19T15:23:08.815Z,11.80
2024-04-19T15:25:37.674Z,11.60
2024-04-19T15:28:15.772Z,11.60
2024-04-19T15:30:42.921Z,11.60
2024-04-19T15:33:10.205Z,11.50
2024-04-19T15:35:38.838Z,11.30
2024-04-19T15:38:07.660Z,11.30
2024-04-19T15:40:34.657Z,11.40
2024-04-19T15:43:01.615Z,11.40
2024-04-19T15:45:29.628Z,11.30
2024-04-19T15:47:56.772Z,11.30
2024-04-19T15:50:23.682Z,11.30
2024-04-19T15:52:50.641Z,11.30
2024-04-19T15:55:20.505Z,11.30
2024-04-19T15:57:47.510Z,11.40
2024-04-19T16:00:16.453Z,11.40
2024-04-19T16:02:43.891Z,11.50
2024-04-19T16:05:11.026Z,11.60
2024-04-19T16:07:38.854Z,11.50
2024-04-19T16:10:06.643Z,11.50
2024-04-19T16:12:33.789Z,11.40
2024-04-19T16:15:01.580Z,11.20
2024-04-19T16:17:29.230Z,11.00
2024-04-19T16:19:56.145Z,11.10
2024-04-19T16:22:23.216Z,11.10
2024-04-19T16:24:50.535Z,11.00
2024-04-19T16:27:17.438Z,11.00
2024-04-19T16:29:44.796Z,11.00
2024-04-19T16:32:11.888Z,11.00
2024-04-19T16:34:38.822Z,10.90
2024-04-19T16:37:05.989Z,10.90
2024-04-19T16:39:32.902Z,10.90
2024-04-19T16:41:59.882Z,10.90
2024-04-19T16:44:26.721Z,10.80
2024-04-19T16:46:53.808Z,10.80
2024-04-19T16:49:20.684Z,10.80
2024-04-19T16:51:47.837Z,10.90
2024-04-19T16:54:14.715Z,10.90
2024-04-19T16:56:44.896Z,10.90
2024-04-19T16:59:12.088Z,10.90
2024-04-19T17:01:39.314Z,10.90
2024-04-19T17:04:06.674Z,10.90
2024-04-19T17:06:35.573Z,10.90
2024-04-19T17:09:02.603Z,10.90
2024-04-19T17:11:29.551Z,10.90
2024-04-19T17:13:56.764Z,10.80
2024-04-19T17:16:23.662Z,10.70
2024-04-19T17:18:51.405Z,10.70
2024-04-19T17:21:18.340Z,10.70
2024-04-19T17:23:47.362Z,10.60
2024-04-19T17:26:15.444Z,10.50
2024-04-19T17:28:42.261Z,10.40
2024-04-19T17:31:09.778Z,10.40
2024-04-19T17:33:37.078Z,10.30
2024-04-19T17:36:05.733Z,10.30
2024-04-19T17:38:32.625Z,10.20
2024-04-19T17:41:03.670Z,10.10
2024-04-19T17:43:30.730Z,10.00
2024-04-19T17:45:57.617Z,10.00
2024-04-19T17:48:24.770Z,10.00
2024-04-19T17:50:51.600Z,10.00
2024-04-19T17:53:19.210Z,9.90
2024-04-19T17:55:50.169Z,9.90
2024-04-19T17:58:17.712Z,9.80
2024-04-19T18:00:51.218Z,9.80
2024-04-19T18:03:18.338Z,9.80
2024-04-19T18:05:45.240Z,9.70
2024-04-19T18:08:12.161Z,9.70
2024-04-19T18:10:39.083Z,9.70
2024-04-19T18:13:06.026Z,9.70
2024-04-19T18:15:34.219Z,9.70
2024-04-19T18:18:04.921Z,9.70
2024-04-19T18:20:32.481Z,9.70
2024-04-19T18:23:00.370Z,9.70
2024-04-19T18:25:27.270Z,9.70
2024-04-19T18:27:54.286Z,9.70
2024-04-19T18:30:21.342Z,9.60
2024-04-19T18:32:48.972Z,9.60
2024-04-19T18:35:16.171Z,9.60
2024-04-19T18:37:43.844Z,9.60
2024-04-19T18:40:11.464Z,9.60
2024-04-19T18:42:38.708Z,9.60
2024-04-19T18:45:06.018Z,9.60
2024-04-19T18:47:33.128Z,9.60
2024-04-19T18:50:00.227Z,9.60
2024-04-19T18:52:27.109Z,9.50
2024-04-19T18:54:54.133Z,9.50
2024-04-19T18:57:20.954Z,9.60
2024-04-19T18:59:51.869Z,9.50
2024-04-19T19:02:19.003Z,9.50
2024-04-19T19:04:46.101Z,9.50
2024-04-19T19:07:14.523Z,9.50
2024-04-19T19:09:41.708Z,9.40
2024-04-19T19:12:08.587Z,9.40
2024-04-19T19:14:36.622Z,9.30
2024-04-19T19:17:03.848Z,9.30
2024-04-19T19:19:30.915Z,9.30
2024-04-19T19:21:58.002Z,9.30
2024-04-19T19:24:25.537Z,9.20
2024-04-19T19:26:52.874Z,9.20
2024-04-19T19:29:23.192Z,9.20
2024-04-19T19:31:50.490Z,9.20
2024-04-19T19:34:17.557Z,9.10
2024-04-19T19:36:46.746Z,9.10
2024-04-19T19:39:13.664Z,9.10
2024-04-19T19:41:40.582Z,9.20
2024-04-19T19:44:07.436Z,9.00
2024-04-19T19:46:34.309Z,9.00
2024-04-19T19:49:01.301Z,8.90
2024-04-19T19:51:28.165Z,8.90
2024-04-19T19:53:55.207Z,8.90
2024-04-19T19:56:22.186Z,8.90
2024-04-19T19:58:49.694Z,8.90
2024-04-19T20:01:35.531Z,8.90
2024-04-19T20:04:32.126Z,8.80
2024-04-19T20:06:59.359Z,8.80
2024-04-19T20:09:26.440Z,8.80
2024-04-19T20:11:53.738Z,8.80
2024-04-19T20:14:21.052Z,8.80
2024-04-19T20:16:48.077Z,8.80
2024-04-19T20:19:15.142Z,8.80
2024-04-19T20:21:42.263Z,8.80
2024-04-19T20:24:09.960Z,8.80
2024-04-19T20:26:37.005Z,8.70
2024-04-19T20:29:04.512Z,8.70
2024-04-19T20:31:31.410Z,8.70
2024-04-19T20:33:58.511Z,8.70
2024-04-19T20:36:25.920Z,8.70
2024-04-19T20:38:53.071Z,8.70
2024-04-19T20:41:19.964Z,8.70
2024-04-19T20:43:47.053Z,8.70
2024-04-19T20:46:13.878Z,8.70
2024-04-19T20:48:41.158Z,8.60
2024-04-19T20:51:08.183Z,8.60
2024-04-19T20:53:35.305Z,8.60
2024-04-19T20:56:03.509Z,8.50
2024-04-19T20:58:30.438Z,8.50
2024-04-19T21:00:57.674Z,8.50
2024-04-19T21:03:24.977Z,8.50
2024-04-19T21:05:52.412Z,8.50
2024-04-19T21:08:19.303Z,8.40
2024-04-19T21:10:46.448Z,8.40
2024-04-19T21:13:13.440Z,8.30
2024-04-19T21:15:40.561Z,8.30
2024-04-19T21:18:07.540Z,8.30
2024-04-19T21:20:36.413Z,8.30
2024-04-19T21:23:03.647Z,8.30
2024-04-19T21:25:30.728Z,8.30
2024-04-19T21:27:58.005Z,8.20
2024-04-19T21:30:25.418Z,8.20
2024-04-19T21:32:52.785Z,8.20
2024-04-19T21:35:19.719Z,8.20
2024-04-19T21:37:46.787Z,8.20
2024-04-19T21:40:14.733Z,8.20
2024-04-19T21:42:42.214Z,8.20
2024-04-19T21:45:10.006Z,8.20
2024-04-19T21:47:36.855Z,8.30
2024-04-19T21:50:04.212Z,8.20
2024-04-19T21:52:31.312Z,8.30
2024-04-19T21:54:58.504Z,8.30
2024-04-19T21:57:26.563Z,8.20
2024-04-19T21:59:54.983Z,8.30
2024-04-19T22:02:22.190Z,8.20
2024-04-19T22:04:51.197Z,8.30
2024-04-19T22:07:18.540Z,8.20
2024-04-19T22:09:45.954Z,8.30
2024-04-19T22:12:13.511Z,8.30
2024-04-19T22:14:40.584Z,8.30
2024-04-19T22:17:12.096Z,8.30
2024-04-19T22:19:39.404Z,8.20
2024-04-19T22:22:06.348Z,8.20
2024-04-19T22:24:33.400Z,8.10
2024-04-19T22:27:00.746Z,8.10
2024-04-19T22:29:28.948Z,8.10
2024-04-19T22:31:55.816Z,8.10
2024-04-19T22:34:23.459Z,8.00
2024-04-19T22:36:50.341Z,8.10
2024-04-19T22:39:18.354Z,8.10
2024-04-19T22:41:45.644Z,8.00
2024-04-19T22:44:12.790Z,8.00
2024-04-19T22:46:40.088Z,8.00
2024-04-19T22:49:07.056Z,8.00
2024-04-19T22:51:34.080Z,8.00
2024-04-19T22:54:00.999Z,8.00
2024-04-19T22:56:28.346Z,8.00
2024-04-19T22:58:55.678Z,8.00
2024-04-19T23:01:22.804Z,8.00
2024-04-19T23:03:49.821Z,8.00
2024-04-19T23:06:17.499Z,8.00
2024-04-19T23:08:44.331Z,8.00
2024-04-19T23:11:11.449Z,8.00
2024-04-19T23:13:38.742Z,8.00
2024-04-19T23:16:09.803Z,8.00
2024-04-19T23:18:37.129Z,8.00
2024-04-19T23:21:06.127Z,8.00
2024-04-19T23:23:34.133Z,8.00
2024-04-19T23:26:06.262Z,7.90
2024-04-19T23:28:33.973Z,7.90
2024-04-19T23:31:01.486Z,7.80
2024-04-19T23:33:31.120Z,7.80
2024-04-19T23:35:59.211Z,7.70
2024-04-19T23:38:27.121Z,7.70
2024-04-19T23:40:56.978Z,7.70
2024-04-19T23:43:23.993Z,7.70
2024-04-19T23:45:51.207Z,7.70
2024-04-19T23:48:18.543Z,7.70
2024-04-19T23:50:45.447Z,7.70
2024-04-19T23:53:14.597Z,7.70
2024-04-19T23:55:41.572Z,7.60
2024-04-19T23:58:08.576Z,7.60
